Time;durP1;ratioP1;P1;durP2;ratioP2;P2;SDS_P1;SDS_P2;PMS_P1;PMS_P2;Temp;Humidity;BMP_temperature;BMP_pressure;BME280_temperature;BME280_humidity;BME280_pressure;Samples;Min_cycle;Max_cycle;Signal;HPM_P1;HPM_P2
2021/01/22 00:00:07;;;;;;;12.45;2.65;;;3.20;99.90;;;;;;5064816;28;20192;-70
2021/01/22 00:02:34;;;;;;;8.85;2.33;;;3.10;99.90;;;;;;5063586;28;20220;-69
2021/01/22 00:04:59;;;;;;;13.20;2.47;;;3.20;99.90;;;;;;5063582;28;20263;-70
2021/01/22 00:10:47;;;;;;;8.20;2.03;;;3.20;99.90;;;;;;5056615;28;20265;-69
2021/01/22 00:13:13;;;;;;;10.65;2.45;;;3.20;99.90;;;;;;5079025;28;20651;-70
2021/01/22 00:15:38;;;;;;;9.70;2.50;;;3.10;99.90;;;;;;5058345;28;20726;-69
2021/01/22 00:18:04;;;;;;;13.85;2.22;;;3.00;99.90;;;;;;5053108;28;20846;-69
2021/01/22 00:20:30;;;;;;;8.30;2.25;;;3.00;99.90;;;;;;5060138;28;20772;-69
2021/01/22 00:22:56;;;;;;;12.13;2.75;;;2.90;99.90;;;;;;5060741;28;20192;-69
2021/01/22 00:25:21;;;;;;;8.43;2.55;;;3.00;99.90;;;;;;5063328;28;20227;-70
2021/01/22 00:27:47;;;;;;;9.73;2.88;;;2.90;99.90;;;;;;5063525;28;20245;-69
2021/01/22 00:30:13;;;;;;;9.63;2.70;;;3.00;99.90;;;;;;5062747;28;20215;-69
2021/01/22 00:32:39;;;;;;;5.28;2.63;;;3.00;99.90;;;;;;5058095;28;20219;-69
2021/01/22 00:35:05;;;;;;;13.43;3.28;;;3.10;99.90;;;;;;5064076;28;20243;-68
2021/01/22 00:37:31;;;;;;;18.80;3.00;;;3.10;99.90;;;;;;5058399;28;20254;-69
2021/01/22 00:39:57;;;;;;;9.77;3.03;;;3.10;99.90;;;;;;5061173;28;20190;-68
2021/01/22 00:42:23;;;;;;;11.55;2.85;;;3.20;99.90;;;;;;5061462;28;20283;-69
2021/01/22 00:44:49;;;;;;;15.02;2.97;;;3.20;99.90;;;;;;5062772;28;20193;-69
2021/01/22 00:47:14;;;;;;;11.27;2.80;;;3.20;99.90;;;;;;5064680;28;20199;-69
2021/01/22 00:49:40;;;;;;;20.20;2.92;;;3.20;99.90;;;;;;5060486;28;20250;-69
2021/01/22 00:52:06;;;;;;;12.38;2.28;;;3.30;99.90;;;;;;5063300;28;20197;-69
2021/01/22 00:54:31;;;;;;;11.93;2.63;;;3.30;99.90;;;;;;5061234;28;20229;-69
2021/01/22 00:56:57;;;;;;;10.73;2.78;;;3.30;99.90;;;;;;5063912;28;20196;-69
2021/01/22 00:59:23;;;;;;;8.68;2.60;;;3.40;99.90;;;;;;5062446;28;20254;-69
2021/01/22 01:01:49;;;;;;;14.65;2.90;;;3.50;99.90;;;;;;5064475;28;20189;-69
2021/01/22 01:04:15;;;;;;;14.45;2.80;;;3.60;99.90;;;;;;5061562;28;20856;-68
2021/01/22 01:06:41;;;;;;;12.02;2.85;;;3.60;99.90;;;;;;5060984;28;20193;-69
2021/01/22 01:09:07;;;;;;;10.65;2.75;;;3.60;99.90;;;;;;5061452;28;20200;-68
2021/01/22 01:11:33;;;;;;;6.18;2.55;;;3.60;99.90;;;;;;5062450;28;20212;-68
2021/01/22 01:13:59;;;;;;;11.27;2.78;;;3.60;99.90;;;;;;5060641;28;20199;-69
2021/01/22 01:16:25;;;;;;;8.48;2.63;;;3.60;99.90;;;;;;5061671;28;20255;-69
2021/01/22 01:18:50;;;;;;;4.63;2.45;;;3.60;99.90;;;;;;5062112;28;20205;-69
2021/01/22 01:21:16;;;;;;;14.63;3.53;;;3.50;99.90;;;;;;5059629;28;20205;-68
2021/01/22 01:23:42;;;;;;;12.40;3.25;;;3.50;99.90;;;;;;5061787;28;21089;-69
2021/01/22 01:26:07;;;;;;;13.82;2.70;;;3.50;99.90;;;;;;5060432;28;20196;-69
2021/01/22 01:28:33;;;;;;;9.48;2.70;;;3.60;99.90;;;;;;5061376;28;20559;-68
2021/01/22 01:30:59;;;;;;;8.63;2.47;;;3.70;99.90;;;;;;5061558;28;20638;-69
2021/01/22 01:33:24;;;;;;;14.77;2.80;;;3.60;99.90;;;;;;5062243;28;20733;-68
2021/01/22 01:35:52;;;;;;;10.15;2.95;;;3.80;99.90;;;;;;5062647;28;21016;-68
2021/01/22 01:38:19;;;;;;;19.00;3.10;;;3.70;99.90;;;;;;5062282;28;21712;-69
2021/01/22 01:40:45;;;;;;;17.27;2.80;;;3.70;99.90;;;;;;5062493;28;20203;-69
2021/01/22 01:43:11;;;;;;;10.20;2.45;;;3.70;99.90;;;;;;5061257;28;20235;-69
2021/01/22 01:45:39;;;;;;;7.63;2.15;;;3.70;99.90;;;;;;5061910;28;20225;-71
2021/01/22 01:48:10;;;;;;;8.82;2.55;;;3.80;99.90;;;;;;5062665;28;20659;-69
2021/01/22 01:50:36;;;;;;;14.75;2.38;;;3.80;99.90;;;;;;5062224;28;20300;-69
2021/01/22 01:53:06;;;;;;;6.85;2.22;;;3.80;99.90;;;;;;5061767;28;20216;-68
2021/01/22 01:55:33;;;;;;;13.57;2.47;;;3.80;99.90;;;;;;5061283;28;20201;-69
2021/01/22 01:58:01;;;;;;;9.73;2.80;;;3.80;99.90;;;;;;5062316;28;20655;-69
2021/01/22 02:00:30;;;;;;;10.90;2.50;;;3.70;99.90;;;;;;5059525;28;20215;-69
2021/01/22 02:02:55;;;;;;;4.95;2.20;;;3.80;99.90;;;;;;5068515;22;20229;-69
2021/01/22 02:05:21;;;;;;;9.43;2.42;;;3.70;99.90;;;;;;5057429;28;20203;-68
2021/01/22 02:07:47;;;;;;;6.85;2.03;;;3.70;99.90;;;;;;5061764;28;20245;-69
2021/01/22 02:10:13;;;;;;;9.00;2.15;;;3.60;99.90;;;;;;5060239;28;20740;-68
2021/01/22 02:12:40;;;;;;;6.15;2.45;;;3.70;99.90;;;;;;5060040;28;20197;-69
2021/01/22 02:15:08;;;;;;;10.52;2.40;;;3.70;99.90;;;;;;5067479;28;20201;-69
2021/01/22 02:17:35;;;;;;;10.00;2.35;;;3.70;99.90;;;;;;5062382;28;20193;-69
2021/01/22 02:20:27;;;;;;;9.02;2.38;;;3.70;99.90;;;;;;5062653;28;20189;-69
2021/01/22 02:22:55;;;;;;;11.73;2.72;;;3.70;99.90;;;;;;5061436;28;20197;-70
2021/01/22 02:25:25;;;;;;;5.68;2.60;;;3.60;99.90;;;;;;5060520;28;20706;-69
2021/01/22 02:27:51;;;;;;;6.85;2.90;;;3.60;99.90;;;;;;5060289;28;20184;-69
2021/01/22 02:30:17;;;;;;;10.68;2.78;;;3.70;99.90;;;;;;5058499;28;20235;-69
2021/01/22 02:32:46;;;;;;;9.48;2.38;;;3.60;99.90;;;;;;5061106;28;20274;-69
2021/01/22 02:35:14;;;;;;;8.88;2.60;;;3.70;99.90;;;;;;5058784;28;20201;-69
2021/01/22 02:37:43;;;;;;;10.68;2.53;;;3.60;99.90;;;;;;5059247;28;21305;-69
2021/01/22 02:40:10;;;;;;;8.40;2.47;;;3.60;99.90;;;;;;5059460;28;20348;-69
2021/01/22 02:42:40;;;;;;;7.53;2.30;;;3.60;99.90;;;;;;5060595;28;20200;-68
2021/01/22 02:45:11;;;;;;;5.65;2.10;;;3.60;99.90;;;;;;5060830;28;20685;-69
2021/01/22 02:47:41;;;;;;;10.07;2.45;;;3.60;99.90;;;;;;5060865;28;20278;-69
2021/01/22 02:50:07;;;;;;;9.70;2.30;;;3.60;99.90;;;;;;5059987;28;20197;-69
2021/01/22 02:52:36;;;;;;;7.57;1.90;;;3.60;99.90;;;;;;5059586;28;20633;-69
2021/01/22 02:55:02;;;;;;;5.60;1.77;;;3.60;99.90;;;;;;5059341;28;20315;-69
2021/01/22 02:57:37;;;;;;;4.25;1.65;;;3.60;99.90;;;;;;5062541;28;20254;-69
2021/01/22 03:00:34;;;;;;;10.38;2.13;;;3.60;99.90;;;;;;5062231;28;20321;-69
2021/01/22 03:03:39;;;;;;;6.78;2.08;;;3.50;99.90;;;;;;5045972;28;20680;-69
2021/01/22 03:06:05;;;;;;;13.13;2.00;;;3.60;99.90;;;;;;5025573;28;20680;-69
2021/01/22 03:08:34;;;;;;;4.40;2.08;;;3.60;99.90;;;;;;5038046;28;20264;-69
2021/01/22 03:11:02;;;;;;;11.88;2.47;;;3.50;99.90;;;;;;5035732;28;20282;-69
2021/01/22 03:13:27;;;;;;;4.38;2.00;;;3.60;99.90;;;;;;5034317;28;20198;-69
2021/01/22 03:15:54;;;;;;;10.30;1.90;;;3.60;99.90;;;;;;5037689;28;20250;-69
2021/01/22 03:18:20;;;;;;;7.80;2.28;;;3.50;99.90;;;;;;5036210;28;20197;-69
2021/01/22 03:20:48;;;;;;;11.57;2.85;;;3.50;99.90;;;;;;5038580;28;20201;-69
2021/01/22 03:23:16;;;;;;;10.77;2.65;;;3.50;99.90;;;;;;5043267;28;20201;-68
2021/01/22 03:25:42;;;;;;;14.50;2.95;;;3.60;99.90;;;;;;5040664;28;20701;-69
2021/01/22 03:28:10;;;;;;;9.13;2.97;;;3.60;99.90;;;;;;5041211;28;20310;-68
2021/01/22 03:30:36;;;;;;;6.25;3.20;;;3.60;99.90;;;;;;5041340;28;20205;-68
2021/01/22 03:33:03;;;;;;;6.85;2.90;;;3.50;99.90;;;;;;5043852;28;20194;-68
2021/01/22 03:35:29;;;;;;;13.50;3.13;;;3.50;99.90;;;;;;5041273;28;20247;-68
2021/01/22 03:37:56;;;;;;;5.90;2.75;;;3.50;99.90;;;;;;5042226;28;20205;-68
2021/01/22 03:40:23;;;;;;;9.23;3.00;;;3.50;99.90;;;;;;5042024;28;20224;-68
2021/01/22 03:42:48;;;;;;;6.28;2.50;;;3.50;99.90;;;;;;5041633;28;20194;-69
2021/01/22 03:45:15;;;;;;;12.10;2.58;;;3.50;99.90;;;;;;5041147;28;20204;-69
2021/01/22 03:47:41;;;;;;;8.20;2.30;;;3.50;99.90;;;;;;5041665;28;20252;-69
2021/01/22 03:50:08;;;;;;;9.32;2.80;;;3.40;99.90;;;;;;5039276;28;20244;-69
2021/01/22 03:52:34;;;;;;;8.10;2.22;;;3.50;99.90;;;;;;5043013;28;20336;-68
2021/01/22 03:54:59;;;;;;;12.23;4.03;;;3.50;99.90;;;;;;5040858;28;20280;-68
2021/01/22 03:57:25;;;;;;;7.47;2.38;;;3.60;99.90;;;;;;5041205;28;20196;-68
2021/01/22 03:59:50;;;;;;;11.52;2.42;;;3.60;99.90;;;;;;5039723;28;20202;-68
2021/01/22 04:02:17;;;;;;;16.95;2.72;;;3.60;99.90;;;;;;5040808;28;20280;-68
2021/01/22 04:04:44;;;;;;;9.90;2.15;;;3.60;99.90;;;;;;5042072;28;20571;-68
2021/01/22 04:07:11;;;;;;;7.43;2.15;;;3.50;99.90;;;;;;5042308;28;20202;-68
2021/01/22 04:09:37;;;;;;;12.13;2.50;;;3.50;99.90;;;;;;5042253;28;20772;-68
2021/01/22 04:12:03;;;;;;;7.97;2.20;;;3.50;99.90;;;;;;5042814;28;20237;-68
2021/01/22 04:14:28;;;;;;;4.93;2.25;;;3.60;99.90;;;;;;5042357;28;20305;-68
2021/01/22 04:16:58;;;;;;;8.40;2.13;;;3.50;99.90;;;;;;5056872;28;20300;-68
2021/01/22 04:19:25;;;;;;;4.07;1.83;;;3.40;99.90;;;;;;5038482;28;20285;-68
2021/01/22 04:21:51;;;;;;;8.77;2.63;;;3.50;99.90;;;;;;5041669;28;20233;-68
2021/01/22 04:24:17;;;;;;;15.18;2.45;;;3.60;99.90;;;;;;5042095;28;20240;-68
2021/01/22 04:26:44;;;;;;;11.25;2.83;;;3.60;99.90;;;;;;5056189;28;20212;-68
2021/01/22 04:29:11;;;;;;;9.80;2.05;;;3.60;99.90;;;;;;5055845;28;20285;-68
2021/01/22 04:31:36;;;;;;;9.05;2.33;;;3.50;99.90;;;;;;5042453;28;20312;-68
2021/01/22 04:34:02;;;;;;;6.90;2.35;;;3.50;99.90;;;;;;5055265;28;20328;-68
2021/01/22 04:36:28;;;;;;;7.55;2.20;;;3.40;99.90;;;;;;5040809;28;20689;-68
2021/01/22 04:38:53;;;;;;;9.32;2.75;;;3.50;99.90;;;;;;5044158;28;20734;-68
2021/01/22 04:41:19;;;;;;;9.27;2.75;;;3.50;99.90;;;;;;5040969;28;20295;-68
2021/01/22 04:43:45;;;;;;;7.85;2.20;;;3.40;99.90;;;;;;5043698;28;20659;-68
2021/01/22 04:46:16;;;;;;;3.97;2.20;;;3.40;99.90;;;;;;5043414;28;20216;-68
2021/01/22 04:48:42;;;;;;;11.27;2.55;;;3.40;99.90;;;;;;5042534;28;20202;-68
2021/01/22 04:51:08;;;;;;;8.27;2.47;;;3.40;99.90;;;;;;5042329;28;20208;-68
2021/01/22 04:53:35;;;;;;;13.75;2.53;;;3.40;99.90;;;;;;5042637;28;20199;-68
2021/01/22 04:56:03;;;;;;;5.97;2.60;;;3.30;99.90;;;;;;5042113;28;20196;-67
2021/01/22 04:58:33;;;;;;;11.27;2.85;;;3.20;99.90;;;;;;5042591;28;20194;-68
2021/01/22 05:01:00;;;;;;;8.82;2.60;;;3.10;99.90;;;;;;5053585;28;20671;-68
2021/01/22 05:03:29;;;;;;;7.90;2.20;;;3.10;99.90;;;;;;5041553;28;21132;-68
2021/01/22 05:05:57;;;;;;;6.70;2.47;;;3.20;99.90;;;;;;5042226;28;20271;-68
2021/01/22 05:08:23;;;;;;;4.43;2.25;;;3.20;99.90;;;;;;5041807;28;20224;-68
2021/01/22 05:10:49;;;;;;;5.95;2.42;;;3.20;99.90;;;;;;5042013;28;20217;-68
2021/01/22 05:13:14;;;;;;;6.45;2.42;;;3.20;99.90;;;;;;5041309;28;20193;-68
2021/01/22 05:15:40;;;;;;;6.95;2.75;;;3.20;99.90;;;;;;5041926;28;21057;-68
2021/01/22 05:18:08;;;;;;;11.40;2.83;;;3.20;99.90;;;;;;5038790;28;20193;-68
2021/01/22 05:20:35;;;;;;;15.07;2.78;;;3.30;99.90;;;;;;5039276;28;20196;-68
2021/01/22 05:23:03;;;;;;;8.50;2.55;;;3.20;99.90;;;;;;5039968;28;20212;-68
2021/01/22 05:25:29;;;;;;;6.35;2.38;;;3.20;99.90;;;;;;5040312;28;20711;-68
2021/01/22 05:27:56;;;;;;;9.30;2.65;;;3.20;99.90;;;;;;5041559;28;20228;-68
2021/01/22 05:30:25;;;;;;;8.15;2.85;;;3.20;99.90;;;;;;5039268;28;20201;-68
2021/01/22 05:32:50;;;;;;;7.95;2.72;;;3.20;99.90;;;;;;5039824;28;20216;-68
2021/01/22 05:35:31;;;;;;;8.73;2.38;;;3.10;99.90;;;;;;5039828;28;20190;-68
2021/01/22 05:37:58;;;;;;;7.88;2.70;;;3.10;99.90;;;;;;5035812;28;20272;-68
2021/01/22 05:40:24;;;;;;;11.82;2.40;;;3.10;99.90;;;;;;5036498;28;20205;-69
2021/01/22 05:42:54;;;;;;;9.45;2.58;;;3.10;99.90;;;;;;5037649;28;20208;-69
2021/01/22 05:45:55;;;;;;;6.80;3.03;;;3.10;99.90;;;;;;5038347;28;20209;-69
2021/01/22 05:48:26;;;;;;;11.00;2.80;;;3.00;99.90;;;;;;4989908;28;20233;-69
2021/01/22 05:50:54;;;;;;;9.10;2.70;;;3.10;99.90;;;;;;4991523;28;20223;-69
2021/01/22 05:53:21;;;;;;;7.43;2.88;;;3.00;99.90;;;;;;4987969;28;20701;-69
2021/01/22 05:56:04;;;;;;;13.38;3.17;;;3.00;99.90;;;;;;4988589;28;20211;-69
2021/01/22 05:58:30;;;;;;;10.45;2.53;;;3.00;99.90;;;;;;4985820;28;20203;-69
2021/01/22 06:01:16;;;;;;;5.80;2.63;;;3.00;99.90;;;;;;4986241;28;20216;-69
2021/01/22 06:03:52;;;;;;;6.85;2.75;;;3.00;99.90;;;;;;4990071;28;20226;-69
2021/01/22 06:06:19;;;;;;;9.00;2.72;;;3.00;99.90;;;;;;4992302;28;20209;-68
2021/01/22 06:08:53;;;;;;;11.65;2.58;;;3.00;99.90;;;;;;4989642;28;20587;-69
2021/01/22 06:11:23;;;;;;;7.45;2.58;;;3.00;99.90;;;;;;4993095;28;20236;-69
2021/01/22 06:13:50;;;;;;;6.47;2.47;;;3.00;99.90;;;;;;4992066;28;20210;-69
2021/01/22 06:16:21;;;;;;;6.25;2.67;;;3.00;99.90;;;;;;4993496;28;20211;-69
2021/01/22 06:18:51;;;;;;;13.35;3.00;;;3.10;99.90;;;;;;4998211;28;20293;-69
2021/01/22 06:21:24;;;;;;;11.93;2.58;;;3.10;99.90;;;;;;5002354;28;20253;-69
2021/01/22 06:23:52;;;;;;;6.03;2.30;;;3.10;99.90;;;;;;5039806;28;20224;-69
2021/01/22 06:26:19;;;;;;;6.68;2.50;;;3.10;99.90;;;;;;5057024;28;20197;-69
2021/01/22 06:28:49;;;;;;;7.50;2.72;;;3.10;99.90;;;;;;5042310;28;20205;-69
2021/01/22 06:31:19;;;;;;;10.43;3.03;;;3.00;99.90;;;;;;5040599;28;20224;-69
2021/01/22 06:33:46;;;;;;;5.57;2.72;;;3.00;99.90;;;;;;5041457;28;20204;-69
2021/01/22 06:36:13;;;;;;;12.38;2.80;;;3.00;99.90;;;;;;5039603;28;20209;-69
2021/01/22 06:38:42;;;;;;;7.40;2.40;;;3.00;99.90;;;;;;5041406;28;20216;-69
2021/01/22 06:41:09;;;;;;;8.95;2.75;;;3.00;99.90;;;;;;5042004;28;20235;-69
2021/01/22 06:43:39;;;;;;;6.60;2.42;;;3.00;99.90;;;;;;5037754;28;20205;-69
2021/01/22 06:46:09;;;;;;;6.65;2.63;;;3.00;99.90;;;;;;5044141;28;20201;-69
2021/01/22 06:48:51;;;;;;;7.15;2.30;;;3.00;99.90;;;;;;5038331;28;20198;-69
2021/01/22 06:51:17;;;;;;;8.63;2.63;;;3.00;99.90;;;;;;5036572;28;20236;-69
2021/01/22 06:54:05;;;;;;;6.32;2.75;;;3.00;99.90;;;;;;5033850;28;20284;-69
2021/01/22 06:56:36;;;;;;;8.98;2.60;;;2.90;99.90;;;;;;5033118;28;20576;-69
2021/01/22 06:59:29;;;;;;;14.25;2.65;;;2.90;99.90;;;;;;5021286;28;20225;-69
2021/01/22 07:01:55;;;;;;;4.50;2.45;;;2.90;99.90;;;;;;5035338;28;20201;-69
2021/01/22 07:04:33;;;;;;;12.95;2.60;;;2.80;99.90;;;;;;5034373;28;20272;-69
2021/01/22 07:07:03;;;;;;;7.68;2.50;;;2.80;99.90;;;;;;5047865;28;20190;-69
2021/01/22 07:09:41;;;;;;;4.40;2.17;;;2.80;99.90;;;;;;5028064;28;20437;-70
2021/01/22 07:12:08;;;;;;;10.10;2.25;;;2.80;99.90;;;;;;5030763;28;20729;-70
2021/01/22 07:14:42;;;;;;;7.97;2.47;;;2.80;99.90;;;;;;5031512;28;20192;-69
2021/01/22 07:17:15;;;;;;;4.97;2.03;;;2.70;99.90;;;;;;5027901;28;20534;-69
2021/01/22 07:19:54;;;;;;;7.93;2.45;;;2.80;99.90;;;;;;5028252;28;20198;-70
2021/01/22 07:22:21;;;;;;;9.60;2.13;;;2.70;99.90;;;;;;5041600;28;20252;-69
2021/01/22 07:24:53;;;;;;;8.82;2.75;;;2.80;99.90;;;;;;5033095;28;20238;-69
2021/01/22 07:27:19;;;;;;;4.57;2.13;;;2.70;99.90;;;;;;5034516;28;20210;-69
2021/01/22 07:30:10;;;;;;;7.72;2.53;;;2.60;99.90;;;;;;5032763;28;20288;-69
2021/01/22 07:32:37;;;;;;;6.18;2.42;;;2.60;99.90;;;;;;5029776;28;20829;-69
2021/01/22 07:35:04;;;;;;;5.03;2.03;;;2.60;99.90;;;;;;5036291;28;20194;-69
2021/01/22 07:37:39;;;;;;;6.10;2.17;;;2.60;99.90;;;;;;5028332;28;20900;-69
2021/01/22 07:40:10;;;;;;;8.27;2.78;;;2.60;99.90;;;;;;5032186;28;20197;-69
2021/01/22 07:42:36;;;;;;;10.25;2.67;;;2.50;99.90;;;;;;5031652;28;20213;-69
2021/01/22 07:45:11;;;;;;;14.02;3.13;;;2.50;99.90;;;;;;5033448;28;20220;-69
2021/01/22 07:47:39;;;;;;;6.82;2.70;;;2.40;99.90;;;;;;5030948;28;20200;-69
2021/01/22 07:50:10;;;;;;;15.18;2.90;;;2.40;99.90;;;;;;5029366;28;20267;-70
2021/01/22 07:52:38;;;;;;;5.00;2.65;;;2.30;99.90;;;;;;5028272;28;20190;-69
2021/01/22 07:55:04;;;;;;;10.80;3.22;;;2.30;99.90;;;;;;5027317;28;20344;-69
2021/01/22 07:57:30;;;;;;;7.00;3.00;;;2.30;99.90;;;;;;5026259;28;20281;-69
2021/01/22 08:00:04;;;;;;;10.43;3.05;;;2.30;99.90;;;;;;5029470;28;20686;-69
2021/01/22 08:02:30;;;;;;;5.30;3.08;;;2.30;99.90;;;;;;5026377;28;20288;-70
2021/01/22 08:04:57;;;;;;;7.30;2.70;;;2.20;99.90;;;;;;5031852;28;20758;-69
2021/01/22 08:07:36;;;;;;;8.45;3.15;;;2.20;99.90;;;;;;5034818;28;20305;-69
2021/01/22 08:10:03;;;;;;;9.52;3.08;;;2.20;99.90;;;;;;5027983;28;20239;-70
2021/01/22 08:12:28;;;;;;;17.65;6.03;;;2.20;99.90;;;;;;5031426;28;20213;-70
2021/01/22 08:14:54;;;;;;;7.63;4.22;;;2.20;99.90;;;;;;5044439;28;20201;-70
2021/01/22 08:17:20;;;;;;;12.90;4.13;;;2.20;99.90;;;;;;5027437;28;20570;-70
2021/01/22 08:19:46;;;;;;;10.40;4.63;;;2.10;99.90;;;;;;5033455;28;20305;-70
2021/01/22 08:22:16;;;;;;;13.90;5.80;;;2.10;99.90;;;;;;5032965;28;20363;-70
2021/01/22 08:24:46;;;;;;;8.50;4.13;;;2.10;99.90;;;;;;5038408;28;20205;-69
2021/01/22 08:27:12;;;;;;;14.05;4.13;;;2.10;99.90;;;;;;5034544;28;20237;-70
2021/01/22 08:29:38;;;;;;;19.38;4.18;;;2.10;99.90;;;;;;5024264;28;20331;-69
2021/01/22 08:32:05;;;;;;;9.95;4.50;;;2.10;99.90;;;;;;5037581;28;20762;-69
2021/01/22 08:34:33;;;;;;;11.85;3.65;;;2.00;99.90;;;;;;5034092;28;20194;-69
2021/01/22 08:36:59;;;;;;;8.80;4.35;;;2.00;99.90;;;;;;5036717;28;20190;-70
2021/01/22 08:39:25;;;;;;;6.78;3.30;;;2.00;99.90;;;;;;5033419;28;20197;-70
2021/01/22 08:41:51;;;;;;;10.65;3.83;;;1.90;99.90;;;;;;5035133;28;20308;-70
2021/01/22 08:44:16;;;;;;;7.93;3.60;;;1.90;99.90;;;;;;5034954;28;20201;-70
2021/01/22 08:46:47;;;;;;;11.70;3.63;;;1.90;99.90;;;;;;5035243;28;20221;-70
2021/01/22 08:49:14;;;;;;;8.88;3.83;;;1.80;99.90;;;;;;5031309;28;20229;-69
2021/01/22 08:51:39;;;;;;;7.50;3.97;;;1.80;99.90;;;;;;5030954;28;20750;-69
2021/01/22 08:54:06;;;;;;;5.95;3.83;;;1.70;99.90;;;;;;5026690;28;20194;-69
2021/01/22 08:56:32;;;;;;;7.82;3.53;;;1.80;99.90;;;;;;5027476;28;20692;-69
2021/01/22 08:59:02;;;;;;;7.25;3.70;;;1.70;99.90;;;;;;5027772;28;20263;-69
2021/01/22 09:01:46;;;;;;;4.88;2.97;;;1.70;99.90;;;;;;5033587;28;21631;-70
2021/01/22 09:04:24;;;;;;;7.28;3.15;;;1.70;99.90;;;;;;5027153;28;20256;-69
2021/01/22 09:06:55;;;;;;;5.20;3.13;;;1.60;99.90;;;;;;5030533;28;20197;-69
2021/01/22 09:09:38;;;;;;;6.28;3.35;;;1.60;99.90;;;;;;5030577;28;20279;-69
2021/01/22 09:12:12;;;;;;;6.05;3.47;;;1.60;99.90;;;;;;5036408;28;20217;-69
2021/01/22 09:14:52;;;;;;;7.25;3.20;;;1.60;99.90;;;;;;5027478;28;20696;-69
2021/01/22 09:17:27;;;;;;;6.20;3.00;;;1.50;99.90;;;;;;5028869;28;20189;-70
2021/01/22 09:20:02;;;;;;;6.03;3.83;;;1.50;99.90;;;;;;5032294;28;20201;-70
2021/01/22 09:22:31;;;;;;;6.60;3.50;;;1.50;99.90;;;;;;5029946;28;20224;-70
2021/01/22 09:24:59;;;;;;;7.40;3.95;;;1.40;99.90;;;;;;5026155;28;20628;-70
2021/01/22 09:27:25;;;;;;;12.15;3.10;;;1.50;99.90;;;;;;5034133;28;20212;-70
2021/01/22 09:29:51;;;;;;;4.63;3.25;;;1.50;99.90;;;;;;5029182;28;20231;-70
2021/01/22 09:32:17;;;;;;;7.47;3.50;;;1.50;99.90;;;;;;5031750;28;20895;-70
2021/01/22 09:34:42;;;;;;;8.65;3.17;;;1.40;99.90;;;;;;5036325;28;20193;-70
2021/01/22 09:37:08;;;;;;;9.25;3.22;;;1.40;99.90;;;;;;5037341;28;20600;-70
2021/01/22 09:39:34;;;;;;;8.93;3.00;;;1.40;99.90;;;;;;5037066;28;20696;-71
2021/01/22 09:42:00;;;;;;;8.10;2.78;;;1.40;99.90;;;;;;5035939;28;20309;-71
2021/01/22 09:44:26;;;;;;;6.72;2.80;;;1.40;99.90;;;;;;5028094;28;20206;-71
2021/01/22 09:46:51;;;;;;;7.60;2.88;;;1.40;99.90;;;;;;5035768;28;20228;-71
2021/01/22 09:49:17;;;;;;;5.80;3.05;;;1.30;99.90;;;;;;5034608;28;20197;-70
2021/01/22 09:51:43;;;;;;;7.57;2.60;;;1.30;99.90;;;;;;5034078;28;20205;-71
2021/01/22 09:54:09;;;;;;;4.22;2.83;;;1.30;99.90;;;;;;5036393;28;20197;-71
2021/01/22 09:56:36;;;;;;;5.45;2.40;;;1.30;99.90;;;;;;5032325;28;20288;-71
2021/01/22 09:59:07;;;;;;;31.25;11.75;;;1.20;99.90;;;;;;5035730;28;20642;-71
2021/01/22 10:01:36;;;;;;;19.23;8.25;;;1.20;99.90;;;;;;5036583;28;20305;-71
2021/01/22 10:04:03;;;;;;;5.78;3.20;;;1.20;99.90;;;;;;5027019;28;20708;-70
2021/01/22 10:06:29;;;;;;;14.63;4.35;;;1.10;99.90;;;;;;5032220;28;20567;-72
2021/01/22 10:08:55;;;;;;;4.53;2.67;;;1.10;99.90;;;;;;5033623;28;20801;-70
2021/01/22 10:11:21;;;;;;;8.93;4.70;;;1.10;99.90;;;;;;5033362;28;20659;-70
2021/01/22 10:13:53;;;;;;;5.78;3.13;;;1.10;99.90;;;;;;5023498;28;20274;-71
2021/01/22 10:16:26;;;;;;;5.32;3.85;;;1.00;99.90;;;;;;5027730;28;20596;-71
2021/01/22 10:18:53;;;;;;;6.72;4.20;;;1.00;99.90;;;;;;5030486;28;20202;-70
2021/01/22 10:21:21;;;;;;;3.65;2.60;;;0.90;99.90;;;;;;5027781;28;20206;-71
2021/01/22 10:23:48;;;;;;;3.58;2.35;;;0.90;99.90;;;;;;5028690;28;21022;-71
2021/01/22 10:26:14;;;;;;;3.22;2.10;;;0.90;99.90;;;;;;5036417;28;20197;-71
2021/01/22 10:28:40;;;;;;;4.20;2.05;;;0.90;99.90;;;;;;5031129;28;20214;-71
2021/01/22 10:31:06;;;;;;;4.38;2.20;;;0.90;99.90;;;;;;5031021;28;20208;-70
2021/01/22 10:33:32;;;;;;;4.75;2.00;;;0.90;99.90;;;;;;5032653;28;20194;-71
2021/01/22 10:35:58;;;;;;;7.40;2.42;;;0.80;99.90;;;;;;5036213;28;20189;-71
2021/01/22 10:38:24;;;;;;;3.13;2.50;;;0.80;99.90;;;;;;5034206;28;20259;-71
2021/01/22 10:40:49;;;;;;;4.57;2.50;;;0.80;99.90;;;;;;5037699;28;20193;-70
2021/01/22 10:43:15;;;;;;;2.75;2.00;;;0.80;99.90;;;;;;5036069;28;20193;-70
2021/01/22 10:45:41;;;;;;;6.20;2.35;;;0.80;99.90;;;;;;5032644;28;20229;-70
2021/01/22 10:48:07;;;;;;;3.13;2.40;;;0.80;99.90;;;;;;5037045;28;20379;-71
2021/01/22 10:50:33;;;;;;;3.63;2.17;;;0.80;99.90;;;;;;5031408;28;20217;-70
2021/01/22 10:52:58;;;;;;;5.30;2.50;;;0.80;99.90;;;;;;5035440;28;20193;-70
2021/01/22 10:55:24;;;;;;;4.53;2.15;;;0.90;99.90;;;;;;5027636;28;20195;-70
2021/01/22 10:57:50;;;;;;;2.85;1.92;;;0.80;99.90;;;;;;5030046;28;20289;-71
2021/01/22 11:00:16;;;;;;;3.20;2.05;;;0.80;99.90;;;;;;5032548;28;20204;-70
2021/01/22 11:02:42;;;;;;;3.45;1.85;;;0.80;99.90;;;;;;5033581;28;20615;-70
2021/01/22 11:05:08;;;;;;;2.45;1.75;;;0.80;99.90;;;;;;5033761;28;20272;-70
2021/01/22 11:07:34;;;;;;;2.53;2.05;;;0.80;99.90;;;;;;5029626;28;20194;-70
2021/01/22 11:09:59;;;;;;;2.53;1.95;;;0.80;99.90;;;;;;5036367;28;20860;-70
2021/01/22 11:12:25;;;;;;;2.72;2.00;;;0.80;99.90;;;;;;5033092;28;20214;-70
2021/01/22 11:14:51;;;;;;;4.57;1.67;;;0.80;99.90;;;;;;5031033;28;20507;-69
2021/01/22 11:17:16;;;;;;;3.47;2.00;;;0.80;99.90;;;;;;5033581;28;20190;-70
2021/01/22 11:19:43;;;;;;;4.43;1.90;;;0.80;99.90;;;;;;5034645;28;20257;-70
2021/01/22 11:22:08;;;;;;;3.17;2.03;;;0.70;99.90;;;;;;5035090;28;20193;-70
2021/01/22 11:24:35;;;;;;;3.38;1.92;;;0.70;99.90;;;;;;5038008;28;20208;-70
2021/01/22 11:27:01;;;;;;;2.15;1.80;;;0.70;99.90;;;;;;5035604;28;20201;-70
2021/01/22 11:29:26;;;;;;;4.38;2.00;;;0.60;99.90;;;;;;5035199;28;21096;-70
2021/01/22 11:31:52;;;;;;;2.28;1.92;;;0.60;99.90;;;;;;5039854;28;20208;-70
2021/01/22 11:34:18;;;;;;;2.28;1.85;;;0.60;99.90;;;;;;5034000;28;20559;-70
2021/01/22 11:36:43;;;;;;;2.25;1.83;;;0.60;99.90;;;;;;5036742;28;20383;-70
2021/01/22 11:39:09;;;;;;;2.30;1.70;;;0.60;99.90;;;;;;5035617;28;20209;-70
2021/01/22 11:41:35;;;;;;;1.70;1.60;;;0.60;99.90;;;;;;5036667;28;20212;-70
2021/01/22 11:44:00;;;;;;;2.50;1.70;;;0.60;99.90;;;;;;5037237;28;20189;-70
2021/01/22 11:46:26;;;;;;;2.03;1.60;;;0.60;99.90;;;;;;5035993;28;20202;-70
2021/01/22 11:48:51;;;;;;;1.88;1.48;;;0.70;99.90;;;;;;5036903;28;20285;-70
2021/01/22 11:51:18;;;;;;;1.75;1.30;;;0.70;99.90;;;;;;5030931;28;20572;-70
2021/01/22 11:53:44;;;;;;;1.40;1.30;;;0.70;99.90;;;;;;5036555;28;20670;-70
2021/01/22 11:56:10;;;;;;;1.73;1.20;;;0.70;99.90;;;;;;5035992;28;20209;-70
2021/01/22 11:58:36;;;;;;;1.30;1.20;;;0.70;99.90;;;;;;5034297;28;20236;-69
2021/01/22 12:01:01;;;;;;;1.70;1.35;;;0.70;99.90;;;;;;5033616;28;20220;-70
2021/01/22 12:03:27;;;;;;;1.40;1.30;;;0.70;99.90;;;;;;5038857;28;20225;-69
2021/01/22 12:05:53;;;;;;;1.75;1.40;;;0.70;99.90;;;;;;5037329;28;20205;-70
2021/01/22 12:08:18;;;;;;;1.40;1.30;;;0.70;99.90;;;;;;5035132;28;20199;-69
2021/01/22 12:10:44;;;;;;;1.40;1.30;;;0.70;99.90;;;;;;5032939;28;20206;-70
2021/01/22 12:13:10;;;;;;;1.27;1.17;;;0.80;99.90;;;;;;5036358;28;20315;-69
2021/01/22 12:15:36;;;;;;;1.20;1.10;;;0.80;99.90;;;;;;5036551;28;20208;-69
2021/01/22 12:18:02;;;;;;;1.10;1.00;;;0.80;99.90;;;;;;5036780;28;20182;-70
2021/01/22 12:20:28;;;;;;;1.20;1.10;;;0.90;99.90;;;;;;5028944;28;20194;-70
2021/01/22 12:22:54;;;;;;;0.90;0.90;;;0.90;99.90;;;;;;5036251;28;20201;-70
2021/01/22 12:25:19;;;;;;;0.95;0.93;;;0.90;99.90;;;;;;5041202;28;20201;-70
2021/01/22 12:27:45;;;;;;;0.80;0.80;;;0.90;99.90;;;;;;5032903;28;20194;-69
2021/01/22 12:30:11;;;;;;;0.90;0.90;;;0.90;99.90;;;;;;5035066;28;20201;-69
2021/01/22 12:32:37;;;;;;;0.98;0.90;;;0.90;99.90;;;;;;5038012;28;20253;-69
2021/01/22 12:35:03;;;;;;;0.90;0.90;;;0.90;99.90;;;;;;5034332;28;20315;-69
2021/01/22 12:37:29;;;;;;;1.00;0.85;;;0.90;99.90;;;;;;5036025;28;20193;-69
2021/01/22 12:39:55;;;;;;;0.80;0.80;;;0.90;99.90;;;;;;5035155;28;20612;-69
2021/01/22 12:42:20;;;;;;;0.80;0.80;;;0.90;99.90;;;;;;5034901;28;20198;-69
2021/01/22 12:44:46;;;;;;;0.90;0.90;;;0.80;99.90;;;;;;5032983;28;20254;-69
2021/01/22 12:47:12;;;;;;;0.95;0.80;;;0.90;99.90;;;;;;5033660;28;20213;-69
2021/01/22 12:49:38;;;;;;;0.90;0.90;;;0.90;99.90;;;;;;5034784;28;20204;-69
2021/01/22 12:52:05;;;;;;;0.80;0.80;;;0.90;99.90;;;;;;5035663;28;20211;-69
2021/01/22 12:54:31;;;;;;;0.75;0.75;;;0.90;99.90;;;;;;5031643;28;20214;-70
2021/01/22 12:56:57;;;;;;;0.80;0.80;;;0.90;99.90;;;;;;5032983;28;20193;-70
2021/01/22 12:59:24;;;;;;;0.90;0.90;;;1.00;99.90;;;;;;5031610;28;20221;-70
2021/01/22 13:01:50;;;;;;;0.80;0.80;;;1.00;99.90;;;;;;5036322;28;20690;-69